sensor_id;sensor_type;location;lat;lon;timestamp;pressure;altitude;pressure_sealevel;temperature;humidity
73748;BME280;62056;52.130;5.428;2023-09-18T00:02:14;100866.22;;;17.34;88.41
73748;BME280;62056;52.130;5.428;2023-09-18T00:04:41;100865.44;;;17.34;88.60
73748;BME280;62056;52.130;5.428;2023-09-18T00:07:07;100850.41;;;17.33;88.75
73748;BME280;62056;52.130;5.428;2023-09-18T00:09:34;100844.25;;;17.32;89.26
73748;BME280;62056;52.130;5.428;2023-09-18T00:12:01;100843.94;;;17.34;88.77
73748;BME280;62056;52.130;5.428;2023-09-18T00:14:28;100837.44;;;17.35;88.62
73748;BME280;62056;52.130;5.428;2023-09-18T00:16:55;100830.97;;;17.36;88.55
73748;BME280;62056;52.130;5.428;2023-09-18T00:19:24;100813.69;;;17.37;88.97
73748;BME280;62056;52.130;5.428;2023-09-18T00:21:51;100814.84;;;17.36;88.09
73748;BME280;62056;52.130;5.428;2023-09-18T00:24:19;100804.06;;;17.36;88.92
73748;BME280;62056;52.130;5.428;2023-09-18T00:26:47;100800.63;;;17.35;89.08
73748;BME280;62056;52.130;5.428;2023-09-18T00:29:14;100802.16;;;17.36;89.25
73748;BME280;62056;52.130;5.428;2023-09-18T00:31:41;100797.94;;;17.35;89.02
73748;BME280;62056;52.130;5.428;2023-09-18T00:34:08;100792.09;;;17.33;88.70
73748;BME280;62056;52.130;5.428;2023-09-18T00:36:34;100791.28;;;17.33;89.62
73748;BME280;62056;52.130;5.428;2023-09-18T00:39:01;100781.69;;;17.32;89.58
73748;BME280;62056;52.130;5.428;2023-09-18T00:41:28;100780.91;;;17.31;89.61
73748;BME280;62056;52.130;5.428;2023-09-18T00:43:55;100779.31;;;17.30;90.37
73748;BME280;62056;52.130;5.428;2023-09-18T00:46:22;100778.53;;;17.30;89.73
73748;BME280;62056;52.130;5.428;2023-09-18T00:48:50;100777.75;;;17.29;90.03
73748;BME280;62056;52.130;5.428;2023-09-18T00:51:17;100763.88;;;17.27;89.71
73748;BME280;62056;52.130;5.428;2023-09-18T00:53:45;100764.97;;;17.26;89.58
73748;BME280;62056;52.130;5.428;2023-09-18T00:56:15;100752.31;;;17.27;90.33
73748;BME280;62056;52.130;5.428;2023-09-18T00:58:42;100745.84;;;17.28;90.07
73748;BME280;62056;52.130;5.428;2023-09-18T01:01:11;100737.44;;;17.29;89.84
73748;BME280;62056;52.130;5.428;2023-09-18T01:03:38;100732.41;;;17.28;89.77
73748;BME280;62056;52.130;5.428;2023-09-18T01:06:05;100727.03;;;17.28;90.02
73748;BME280;62056;52.130;5.428;2023-09-18T01:08:32;100717.81;;;17.29;90.37
73748;BME280;62056;52.130;5.428;2023-09-18T01:11:14;100710.13;;;17.27;92.06
73748;BME280;62056;52.130;5.428;2023-09-18T01:13:52;100705.84;;;17.26;91.77
73748;BME280;62056;52.130;5.428;2023-09-18T01:16:25;100705.06;;;17.26;90.86
73748;BME280;62056;52.130;5.428;2023-09-18T01:18:53;100703.16;;;17.26;90.24
73748;BME280;62056;52.130;5.428;2023-09-18T01:21:21;100687.03;;;17.26;90.20
73748;BME280;62056;52.130;5.428;2023-09-18T01:23:50;100687.03;;;17.26;90.58
73748;BME280;62056;52.130;5.428;2023-09-18T01:26:18;100685.13;;;17.27;90.88
73748;BME280;62056;52.130;5.428;2023-09-18T01:28:44;100677.53;;;17.29;90.82
73748;BME280;62056;52.130;5.428;2023-09-18T01:31:11;100670.25;;;17.29;91.07
73748;BME280;62056;52.130;5.428;2023-09-18T01:33:39;100660.28;;;17.30;90.69
73748;BME280;62056;52.130;5.428;2023-09-18T01:36:08;100651.09;;;17.31;91.28
73748;BME280;62056;52.130;5.428;2023-09-18T01:38:36;100647.31;;;17.32;90.53
73748;BME280;62056;52.130;5.428;2023-09-18T01:41:06;100650.00;;;17.32;91.16
73748;BME280;62056;52.130;5.428;2023-09-18T01:43:33;100647.75;;;17.34;91.21
73748;BME280;62056;52.130;5.428;2023-09-18T01:46:01;100642.81;;;17.36;93.17
73748;BME280;62056;52.130;5.428;2023-09-18T01:48:29;100638.22;;;17.36;92.06
73748;BME280;62056;52.130;5.428;2023-09-18T01:50:56;100642.50;;;17.37;90.98
73748;BME280;62056;52.130;5.428;2023-09-18T01:53:23;100642.59;;;17.41;90.41
73748;BME280;62056;52.130;5.428;2023-09-18T01:55:51;100641.03;;;17.40;91.28
73748;BME280;62056;52.130;5.428;2023-09-18T01:58:17;100645.28;;;17.41;91.70
73748;BME280;62056;52.130;5.428;2023-09-18T02:00:45;100649.53;;;17.42;91.43
73748;BME280;62056;52.130;5.428;2023-09-18T02:03:12;100651.44;;;17.42;91.40
73748;BME280;62056;52.130;5.428;2023-09-18T02:05:59;100648.75;;;17.42;91.64
73748;BME280;62056;52.130;5.428;2023-09-18T02:08:26;100653.00;;;17.43;91.41
73748;BME280;62056;52.130;5.428;2023-09-18T02:10:53;100659.94;;;17.44;92.38
73748;BME280;62056;52.130;5.428;2023-09-18T02:13:20;100648.84;;;17.45;93.80
73748;BME280;62056;52.130;5.428;2023-09-18T02:15:47;100658.50;;;17.46;93.18
73748;BME280;62056;52.130;5.428;2023-09-18T02:18:14;100661.19;;;17.46;92.93
73748;BME280;62056;52.130;5.428;2023-09-18T02:20:42;100651.22;;;17.47;92.54
73748;BME280;62056;52.130;5.428;2023-09-18T02:23:10;100656.25;;;17.48;92.57
73748;BME280;62056;52.130;5.428;2023-09-18T02:25:37;100663.19;;;17.49;92.35
73748;BME280;62056;52.130;5.428;2023-09-18T02:28:04;100655.13;;;17.49;92.27
73748;BME280;62056;52.130;5.428;2023-09-18T02:30:31;100651.66;;;17.49;92.45
73748;BME280;62056;52.130;5.428;2023-09-18T02:32:59;100634.31;;;17.46;92.87
73748;BME280;62056;52.130;5.428;2023-09-18T02:35:26;100628.13;;;17.46;93.03
73748;BME280;62056;52.130;5.428;2023-09-18T02:37:53;100616.16;;;17.43;93.28
73748;BME280;62056;52.130;5.428;2023-09-18T02:40:19;100612.38;;;17.44;92.98
73748;BME280;62056;52.130;5.428;2023-09-18T02:42:46;100608.88;;;17.44;92.80
73748;BME280;62056;52.130;5.428;2023-09-18T02:45:13;100610.44;;;17.45;92.71
73748;BME280;62056;52.130;5.428;2023-09-18T02:47:40;100604.28;;;17.44;92.93
73748;BME280;62056;52.130;5.428;2023-09-18T02:50:09;100588.50;;;17.43;92.27
73748;BME280;62056;52.130;5.428;2023-09-18T02:52:37;100587.38;;;17.44;92.55
73748;BME280;62056;52.130;5.428;2023-09-18T02:55:04;100584.69;;;17.44;92.39
73748;BME280;62056;52.130;5.428;2023-09-18T02:57:31;100575.50;;;17.45;92.58
73748;BME280;62056;52.130;5.428;2023-09-18T02:59:58;100563.19;;;17.44;91.73
73748;BME280;62056;52.130;5.428;2023-09-18T03:02:25;100555.09;;;17.44;92.50
73748;BME280;62056;52.130;5.428;2023-09-18T03:04:52;100545.94;;;17.45;92.62
73748;BME280;62056;52.130;5.428;2023-09-18T03:07:19;100540.56;;;17.45;92.91
73748;BME280;62056;52.130;5.428;2023-09-18T03:09:45;100529.81;;;17.45;93.26
73748;BME280;62056;52.130;5.428;2023-09-18T03:12:12;100523.31;;;17.46;93.44
73748;BME280;62056;52.130;5.428;2023-09-18T03:14:39;100516.81;;;17.47;93.16
73748;BME280;62056;52.130;5.428;2023-09-18T03:17:06;100516.81;;;17.47;93.51
73748;BME280;62056;52.130;5.428;2023-09-18T03:19:32;100517.25;;;17.49;93.50
73748;BME280;62056;52.130;5.428;2023-09-18T03:22:01;100522.97;;;17.47;93.17
73748;BME280;62056;52.130;5.428;2023-09-18T03:24:28;100510.75;;;17.50;93.16
73748;BME280;62056;52.130;5.428;2023-09-18T03:26:55;100516.56;;;17.52;92.91
73748;BME280;62056;52.130;5.428;2023-09-18T03:29:22;100499.34;;;17.53;93.43
73748;BME280;62056;52.130;5.428;2023-09-18T03:31:49;100497.41;;;17.53;93.56
73748;BME280;62056;52.130;5.428;2023-09-18T03:34:16;100501.69;;;17.54;93.86
73748;BME280;62056;52.130;5.428;2023-09-18T03:36:43;100509.38;;;17.56;93.56
73748;BME280;62056;52.130;5.428;2023-09-18T03:39:09;100501.31;;;17.56;93.56
73748;BME280;62056;52.130;5.428;2023-09-18T03:41:36;100509.06;;;17.57;93.67
73748;BME280;62056;52.130;5.428;2023-09-18T03:44:03;100517.88;;;17.58;93.92
73748;BME280;62056;52.130;5.428;2023-09-18T03:46:30;100514.88;;;17.59;93.39
73748;BME280;62056;52.130;5.428;2023-09-18T03:49:00;100518.34;;;17.60;93.54
73748;BME280;62056;52.130;5.428;2023-09-18T03:51:28;100521.81;;;17.60;92.55
73748;BME280;62056;52.130;5.428;2023-09-18T03:53:55;100527.66;;;17.63;92.56
73748;BME280;62056;52.130;5.428;2023-09-18T03:56:22;100513.50;;;17.66;92.80
73748;BME280;62056;52.130;5.428;2023-09-18T03:58:49;100505.09;;;17.67;94.62
73748;BME280;62056;52.130;5.428;2023-09-18T04:01:16;100505.09;;;17.67;95.86
73748;BME280;62056;52.130;5.428;2023-09-18T04:03:44;100497.81;;;17.68;94.70
73748;BME280;62056;52.130;5.428;2023-09-18T04:06:11;100495.13;;;17.68;94.74
73748;BME280;62056;52.130;5.428;2023-09-18T04:08:37;100483.59;;;17.67;94.26
73748;BME280;62056;52.130;5.428;2023-09-18T04:11:04;100487.50;;;17.70;93.56
73748;BME280;62056;52.130;5.428;2023-09-18T04:13:31;100488.72;;;17.72;94.25
73748;BME280;62056;52.130;5.428;2023-09-18T04:16:00;100486.03;;;17.72;93.72
73748;BME280;62056;52.130;5.428;2023-09-18T04:18:27;100482.22;;;17.73;93.84
73748;BME280;62056;52.130;5.428;2023-09-18T04:20:54;100475.03;;;17.77;95.34
73748;BME280;62056;52.130;5.428;2023-09-18T04:23:25;100462.72;;;17.76;95.75
73748;BME280;62056;52.130;5.428;2023-09-18T04:25:53;100458.91;;;17.77;95.48
73748;BME280;62056;52.130;5.428;2023-09-18T04:28:22;100452.38;;;17.78;96.19
73748;BME280;62056;52.130;5.428;2023-09-18T04:30:49;100450.47;;;17.79;95.62
73748;BME280;62056;52.130;5.428;2023-09-18T04:33:16;100454.75;;;17.80;94.61
73748;BME280;62056;52.130;5.428;2023-09-18T04:35:44;100442.84;;;17.81;94.50
73748;BME280;62056;52.130;5.428;2023-09-18T04:38:11;100430.19;;;17.82;95.77
73748;BME280;62056;52.130;5.428;2023-09-18T04:40:38;100434.47;;;17.83;96.21
73748;BME280;62056;52.130;5.428;2023-09-18T04:43:07;100412.16;;;17.82;96.53
73748;BME280;62056;52.130;5.428;2023-09-18T04:45:34;100426.72;;;17.81;96.47
73748;BME280;62056;52.130;5.428;2023-09-18T04:48:01;100424.81;;;17.82;96.26
73748;BME280;62056;52.130;5.428;2023-09-18T04:50:29;100421.31;;;17.81;96.23
73748;BME280;62056;52.130;5.428;2023-09-18T04:52:56;100422.13;;;17.82;95.92
73748;BME280;62056;52.130;5.428;2023-09-18T04:55:24;100411.03;;;17.83;96.72
73748;BME280;62056;52.130;5.428;2023-09-18T04:57:51;100445.53;;;17.81;95.09
73748;BME280;62056;52.130;5.428;2023-09-18T05:00:17;100490.94;;;17.83;95.85
73748;BME280;62056;52.130;5.428;2023-09-18T05:02:45;100483.09;;;17.90;97.80
73748;BME280;62056;52.130;5.428;2023-09-18T05:05:12;100470.75;;;17.89;100.00
73748;BME280;62056;52.130;5.428;2023-09-18T05:07:40;100475.25;;;17.85;98.28
73748;BME280;62056;52.130;5.428;2023-09-18T05:10:07;100498.53;;;17.93;98.27
73748;BME280;62056;52.130;5.428;2023-09-18T05:12:34;100459.81;;;17.97;100.00
73748;BME280;62056;52.130;5.428;2023-09-18T05:15:01;100452.47;;;17.94;98.65
73748;BME280;62056;52.130;5.428;2023-09-18T05:17:48;100462.44;;;17.94;99.13
73748;BME280;62056;52.130;5.428;2023-09-18T05:20:20;100469.47;;;17.98;99.34
73748;BME280;62056;52.130;5.428;2023-09-18T05:22:52;100459.03;;;17.97;100.00
73748;BME280;62056;52.130;5.428;2023-09-18T05:25:21;100447.19;;;17.98;100.00
73748;BME280;62056;52.130;5.428;2023-09-18T05:27:52;100443.69;;;17.97;99.76
73748;BME280;62056;52.130;5.428;2023-09-18T05:30:30;100446.38;;;17.97;100.00
73748;BME280;62056;52.130;5.428;2023-09-18T05:33:00;100438.31;;;17.97;99.28
73748;BME280;62056;52.130;5.428;2023-09-18T05:35:35;100460.97;;;17.96;98.63
73748;BME280;62056;52.130;5.428;2023-09-18T05:38:05;100459.38;;;17.95;98.78
73748;BME280;62056;52.130;5.428;2023-09-18T05:40:32;100468.69;;;17.98;99.15
73748;BME280;62056;52.130;5.428;2023-09-18T05:42:59;100460.97;;;17.96;98.81
73748;BME280;62056;52.130;5.428;2023-09-18T05:45:26;100465.56;;;17.96;98.62
73748;BME280;62056;52.130;5.428;2023-09-18T05:47:55;100465.56;;;17.96;98.43
73748;BME280;62056;52.130;5.428;2023-09-18T05:50:31;100479.78;;;17.96;98.28
73748;BME280;62056;52.130;5.428;2023-09-18T05:52:59;100471.28;;;17.94;98.17
73748;BME280;62056;52.130;5.428;2023-09-18T05:55:27;100465.19;;;17.97;98.69
73748;BME280;62056;52.130;5.428;2023-09-18T05:57:54;100465.19;;;17.97;98.75
73748;BME280;62056;52.130;5.428;2023-09-18T06:00:21;100466.78;;;17.98;98.68
73748;BME280;62056;52.130;5.428;2023-09-18T06:02:48;100459.81;;;17.97;99.33
73748;BME280;62056;52.130;5.428;2023-09-18T06:05:15;100466.00;;;17.98;99.53
73748;BME280;62056;52.130;5.428;2023-09-18T06:07:43;100473.63;;;17.96;99.14
73748;BME280;62056;52.130;5.428;2023-09-18T06:10:11;100461.75;;;17.97;99.73
73748;BME280;62056;52.130;5.428;2023-09-18T06:12:38;100455.59;;;17.96;100.00
73748;BME280;62056;52.130;5.428;2023-09-18T06:15:07;100462.88;;;17.96;99.81
73748;BME280;62056;52.130;5.428;2023-09-18T06:17:38;100473.97;;;17.94;99.26
73748;BME280;62056;52.130;5.428;2023-09-18T06:20:08;100468.25;;;17.96;100.00
73748;BME280;62056;52.130;5.428;2023-09-18T06:22:38;100468.25;;;17.96;100.00
73748;BME280;62056;52.130;5.428;2023-09-18T06:25:06;100464.31;;;17.93;100.00
73748;BME280;62056;52.130;5.428;2023-09-18T06:27:34;100470.50;;;17.94;99.80
73748;BME280;62056;52.130;5.428;2023-09-18T06:30:03;100470.16;;;17.95;99.33
73748;BME280;62056;52.130;5.428;2023-09-18T06:32:30;100476.75;;;17.98;99.03
73748;BME280;62056;52.130;5.428;2023-09-18T06:34:57;100475.72;;;18.03;98.86
73748;BME280;62056;52.130;5.428;2023-09-18T06:37:26;100474.69;;;18.07;99.83
73748;BME280;62056;52.130;5.428;2023-09-18T06:39:53;100472.16;;;18.14;100.00
73748;BME280;62056;52.130;5.428;2023-09-18T06:42:20;100479.72;;;18.25;100.00
73748;BME280;62056;52.130;5.428;2023-09-18T06:44:47;100477.22;;;18.32;100.00
73748;BME280;62056;52.130;5.428;2023-09-18T06:47:14;100466.28;;;18.40;100.00
73748;BME280;62056;52.130;5.428;2023-09-18T06:49:43;100468.78;;;18.49;100.00
73748;BME280;62056;52.130;5.428;2023-09-18T06:52:10;100478.94;;;18.56;100.00
73748;BME280;62056;52.130;5.428;2023-09-18T06:54:38;100476.88;;;18.65;100.00
73748;BME280;62056;52.130;5.428;2023-09-18T06:57:04;100477.03;;;18.72;100.00
73748;BME280;62056;52.130;5.428;2023-09-18T06:59:33;100473.38;;;18.80;100.00
73748;BME280;62056;52.130;5.428;2023-09-18T07:02:01;100469.72;;;18.89;100.00
73748;BME280;62056;52.130;5.428;2023-09-18T07:04:28;100481.44;;;18.96;100.00
73748;BME280;62056;52.130;5.428;2023-09-18T07:06:55;100487.75;;;19.04;100.00
73748;BME280;62056;52.130;5.428;2023-09-18T07:09:23;100485.22;;;19.11;100.00
73748;BME280;62056;52.130;5.428;2023-09-18T07:11:51;100484.25;;;19.19;100.00
73748;BME280;62056;52.130;5.428;2023-09-18T07:14:18;100476.69;;;19.25;100.00
73748;BME280;62056;52.130;5.428;2023-09-18T07:16:45;100477.16;;;19.31;100.00
73748;BME280;62056;52.130;5.428;2023-09-18T07:19:13;100485.41;;;19.38;100.00
73748;BME280;62056;52.130;5.428;2023-09-18T07:21:43;100493.97;;;19.44;100.00
73748;BME280;62056;52.130;5.428;2023-09-18T07:24:11;100492.94;;;19.48;100.00
73748;BME280;62056;52.130;5.428;2023-09-18T07:26:45;100487.59;;;19.52;100.00
73748;BME280;62056;52.130;5.428;2023-09-18T07:29:14;100468.03;;;19.55;100.00
73748;BME280;62056;52.130;5.428;2023-09-18T07:31:44;100473.13;;;19.60;100.00
73748;BME280;62056;52.130;5.428;2023-09-18T07:34:11;100481.28;;;19.64;100.00
73748;BME280;62056;52.130;5.428;2023-09-18T07:36:40;100474.47;;;19.70;100.00
73748;BME280;62056;52.130;5.428;2023-09-18T07:39:08;100472.22;;;19.72;100.00
73748;BME280;62056;52.130;5.428;2023-09-18T07:41:35;100477.31;;;19.77;100.00
73748;BME280;62056;52.130;5.428;2023-09-18T07:44:02;100485.81;;;19.79;100.00
73748;BME280;62056;52.130;5.428;2023-09-18T07:46:28;100488.59;;;19.83;100.00
73748;BME280;62056;52.130;5.428;2023-09-18T07:48:55;100487.53;;;19.87;100.00
73748;BME280;62056;52.130;5.428;2023-09-18T07:51:24;100485.25;;;19.89;100.00
73748;BME280;62056;52.130;5.428;2023-09-18T07:53:51;100482.28;;;19.94;100.00
73748;BME280;62056;52.130;5.428;2023-09-18T07:56:18;100473.81;;;19.96;100.00
73748;BME280;62056;52.130;5.428;2023-09-18T07:58:46;100481.63;;;20.01;100.00
73748;BME280;62056;52.130;5.428;2023-09-18T08:01:13;100490.63;;;20.09;100.00
73748;BME280;62056;52.130;5.428;2023-09-18T08:03:44;100487.19;;;20.12;100.00
73748;BME280;62056;52.130;5.428;2023-09-18T08:06:11;100500.34;;;20.13;100.00
73748;BME280;62056;52.130;5.428;2023-09-18T08:08:41;100492.25;;;20.13;100.00
73748;BME280;62056;52.130;5.428;2023-09-18T08:11:08;100488.81;;;20.16;100.00
73748;BME280;62056;52.130;5.428;2023-09-18T08:13:38;100497.41;;;20.22;100.00
73748;BME280;62056;52.130;5.428;2023-09-18T08:16:08;100502.88;;;20.26;100.00
73748;BME280;62056;52.130;5.428;2023-09-18T08:18:35;100500.59;;;20.28;100.00
73748;BME280;62056;52.130;5.428;2023-09-18T08:21:02;100509.09;;;20.30;100.00
73748;BME280;62056;52.130;5.428;2023-09-18T08:23:36;100507.25;;;20.34;100.00
73748;BME280;62056;52.130;5.428;2023-09-18T08:26:03;100508.03;;;20.34;100.00
73748;BME280;62056;52.130;5.428;2023-09-18T08:28:30;100516.13;;;20.34;100.00
73748;BME280;62056;52.130;5.428;2023-09-18T08:30:58;100523.88;;;20.36;100.00
73748;BME280;62056;52.130;5.428;2023-09-18T08:33:25;100519.25;;;20.36;100.00
73748;BME280;62056;52.130;5.428;2023-09-18T08:35:52;100515.88;;;20.43;100.00
73748;BME280;62056;52.130;5.428;2023-09-18T08:38:19;100513.19;;;20.43;99.15
73748;BME280;62056;52.130;5.428;2023-09-18T08:40:46;100513.25;;;20.47;99.60
73748;BME280;62056;52.130;5.428;2023-09-18T08:43:14;100513.31;;;20.50;99.35
73748;BME280;62056;52.130;5.428;2023-09-18T08:45:46;100521.03;;;20.52;98.50
73748;BME280;62056;52.130;5.428;2023-09-18T08:48:19;100519.25;;;20.59;98.86
73748;BME280;62056;52.130;5.428;2023-09-18T08:50:47;100524.22;;;20.57;98.49
73748;BME280;62056;52.130;5.428;2023-09-18T08:53:14;100526.34;;;20.68;98.74
73748;BME280;62056;52.130;5.428;2023-09-18T08:55:42;100532.50;;;20.68;97.94
73748;BME280;62056;52.130;5.428;2023-09-18T08:58:08;100541.03;;;20.70;98.55
73748;BME280;62056;52.130;5.428;2023-09-18T09:00:39;100536.47;;;20.74;97.51
73748;BME280;62056;52.130;5.428;2023-09-18T09:03:06;100537.72;;;20.80;97.49
73748;BME280;62056;52.130;5.428;2023-09-18T09:05:34;100559.41;;;20.84;97.29
73748;BME280;62056;52.130;5.428;2023-09-18T09:08:01;100564.38;;;20.82;96.00
73748;BME280;62056;52.130;5.428;2023-09-18T09:10:28;100564.06;;;20.87;95.16
73748;BME280;62056;52.130;5.428;2023-09-18T09:12:58;100563.44;;;20.94;95.78
73748;BME280;62056;52.130;5.428;2023-09-18T09:15:29;100569.28;;;20.99;95.26
73748;BME280;62056;52.130;5.428;2023-09-18T09:18:06;100564.34;;;21.05;95.48
73748;BME280;62056;52.130;5.428;2023-09-18T09:20:36;100561.81;;;21.16;95.77
73748;BME280;62056;52.130;5.428;2023-09-18T09:23:09;100551.81;;;21.20;94.98
73748;BME280;62056;52.130;5.428;2023-09-18T09:25:40;100555.75;;;21.26;94.74
73748;BME280;62056;52.130;5.428;2023-09-18T09:28:07;100561.66;;;21.35;95.26
73748;BME280;62056;52.130;5.428;2023-09-18T09:30:35;100554.47;;;21.43;93.00
73748;BME280;62056;52.130;5.428;2023-09-18T09:33:04;100559.94;;;21.47;94.01
73748;BME280;62056;52.130;5.428;2023-09-18T09:35:36;100557.28;;;21.50;92.81
73748;BME280;62056;52.130;5.428;2023-09-18T09:38:09;100563.94;;;21.60;92.54
73748;BME280;62056;52.130;5.428;2023-09-18T09:40:38;100562.19;;;21.71;92.37
73748;BME280;62056;52.130;5.428;2023-09-18T09:43:08;100568.81;;;21.77;91.84
73748;BME280;62056;52.130;5.428;2023-09-18T09:45:37;100571.25;;;21.86;92.17
73748;BME280;62056;52.130;5.428;2023-09-18T09:48:05;100572.47;;;21.92;91.67
73748;BME280;62056;52.130;5.428;2023-09-18T09:50:43;100576.75;;;21.97;91.22
73748;BME280;62056;52.130;5.428;2023-09-18T09:53:18;100576.75;;;21.97;88.58
73748;BME280;62056;52.130;5.428;2023-09-18T09:55:45;100580.28;;;22.01;88.73
73748;BME280;62056;52.130;5.428;2023-09-18T09:58:12;100580.22;;;21.94;87.80
73748;BME280;62056;52.130;5.428;2023-09-18T10:00:46;100579.00;;;21.91;86.98
73748;BME280;62056;52.130;5.428;2023-09-18T10:03:18;100586.38;;;21.91;86.09
73748;BME280;62056;52.130;5.428;2023-09-18T10:05:47;100589.13;;;21.94;86.46
73748;BME280;62056;52.130;5.428;2023-09-18T10:08:17;100595.34;;;21.98;85.99
73748;BME280;62056;52.130;5.428;2023-09-18T10:10:49;100603.09;;;22.00;86.57
73748;BME280;62056;52.130;5.428;2023-09-18T10:13:40;100603.88;;;22.00;85.28
73748;BME280;62056;52.130;5.428;2023-09-18T10:16:09;100586.13;;;22.03;85.50
73748;BME280;62056;52.130;5.428;2023-09-18T10:19:04;100590.00;;;22.06;85.33
73748;BME280;62056;52.130;5.428;2023-09-18T10:24:16;100585.03;;;22.11;84.15
73748;BME280;62056;52.130;5.428;2023-09-18T10:27:01;100592.16;;;22.23;85.17
73748;BME280;62056;52.130;5.428;2023-09-18T10:29:31;100590.28;;;22.27;84.63
73748;BME280;62056;52.130;5.428;2023-09-18T10:31:59;100591.47;;;22.30;84.67
73748;BME280;62056;52.130;5.428;2023-09-18T10:34:25;100588.47;;;22.42;84.53
73748;BME280;62056;52.130;5.428;2023-09-18T10:36:54;100595.13;;;22.52;83.12
73748;BME280;62056;52.130;5.428;2023-09-18T10:39:25;100613.00;;;22.56;82.24
73748;BME280;62056;52.130;5.428;2023-09-18T10:41:57;100621.16;;;22.60;83.11
73748;BME280;62056;52.130;5.428;2023-09-18T10:44:28;100618.88;;;22.66;82.71
73748;BME280;62056;52.130;5.428;2023-09-18T10:46:56;100617.34;;;22.68;82.76
73748;BME280;62056;52.130;5.428;2023-09-18T10:49:27;100609.97;;;22.65;82.46
73748;BME280;62056;52.130;5.428;2023-09-18T10:51:55;100615.50;;;22.76;82.80
73748;BME280;62056;52.130;5.428;2023-09-18T10:54:24;100620.81;;;22.69;79.48
73748;BME280;62056;52.130;5.428;2023-09-18T10:56:52;100611.97;;;22.72;81.67
73748;BME280;62056;52.130;5.428;2023-09-18T10:59:20;100607.75;;;22.78;81.82
73748;BME280;62056;52.130;5.428;2023-09-18T11:01:50;100617.84;;;22.77;81.87
73748;BME280;62056;52.130;5.428;2023-09-18T11:04:20;100604.97;;;22.71;80.10
73748;BME280;62056;52.130;5.428;2023-09-18T11:09:23;100617.28;;;22.61;79.43
73748;BME280;62056;52.130;5.428;2023-09-18T11:12:02;100606.78;;;22.56;77.16
73748;BME280;62056;52.130;5.428;2023-09-18T11:14:57;100602.22;;;22.63;79.49
73748;BME280;62056;52.130;5.428;2023-09-18T11:17:40;100604.19;;;22.70;80.13
73748;BME280;62056;52.130;5.428;2023-09-18T11:20:18;100604.56;;;22.65;79.04
73748;BME280;62056;52.130;5.428;2023-09-18T11:22:59;100596.03;;;22.67;79.52
73748;BME280;62056;52.130;5.428;2023-09-18T11:25:37;100588.75;;;22.74;79.45
73748;BME280;62056;52.130;5.428;2023-09-18T11:28:13;100592.28;;;22.78;77.94
73748;BME280;62056;52.130;5.428;2023-09-18T11:30:49;100598.16;;;22.91;78.37
73748;BME280;62056;52.130;5.428;2023-09-18T11:33:30;100593.91;;;22.90;76.39
73748;BME280;62056;52.130;5.428;2023-09-18T11:36:08;100592.38;;;22.93;76.66
73748;BME280;62056;52.130;5.428;2023-09-18T11:38:56;100595.97;;;23.04;77.39
73748;BME280;62056;52.130;5.428;2023-09-18T11:41:27;100585.91;;;23.05;76.57
73748;BME280;62056;52.130;5.428;2023-09-18T11:46:49;100577.03;;;23.08;77.12
73748;BME280;62056;52.130;5.428;2023-09-18T11:49:22;100585.94;;;23.08;73.04
73748;BME280;62056;52.130;5.428;2023-09-18T11:51:50;100589.53;;;23.23;74.38
73748;BME280;62056;52.130;5.428;2023-09-18T11:54:18;100582.16;;;23.23;74.61
73748;BME280;62056;52.130;5.428;2023-09-18T11:56:45;100584.06;;;23.19;74.72
73748;BME280;62056;52.130;5.428;2023-09-18T11:59:12;100583.31;;;23.22;74.58
73748;BME280;62056;52.130;5.428;2023-09-18T12:01:41;100583.38;;;23.37;74.30
73748;BME280;62056;52.130;5.428;2023-09-18T12:04:13;100585.31;;;23.29;73.16
73748;BME280;62056;52.130;5.428;2023-09-18T12:06:41;100584.97;;;23.38;73.58
73748;BME280;62056;52.130;5.428;2023-09-18T12:09:09;100588.78;;;23.30;73.71
73748;BME280;62056;52.130;5.428;2023-09-18T12:11:41;100592.31;;;23.37;73.92
73748;BME280;62056;52.130;5.428;2023-09-18T12:14:09;100591.56;;;23.40;73.66
73748;BME280;62056;52.130;5.428;2023-09-18T12:16:39;100581.53;;;23.52;72.43
73748;BME280;62056;52.130;5.428;2023-09-18T12:19:06;100583.47;;;23.51;73.25
73748;BME280;62056;52.130;5.428;2023-09-18T12:21:42;100586.94;;;23.52;72.18
73748;BME280;62056;52.130;5.428;2023-09-18T12:24:26;100586.53;;;23.42;72.50
73748;BME280;62056;52.130;5.428;2023-09-18T12:26:54;100568.34;;;23.50;72.78
73748;BME280;62056;52.130;5.428;2023-09-18T12:29:21;100579.97;;;23.51;70.10
73748;BME280;62056;52.130;5.428;2023-09-18T12:31:49;100568.75;;;23.56;71.31
73748;BME280;62056;52.130;5.428;2023-09-18T12:34:18;100577.63;;;23.46;69.58
73748;BME280;62056;52.130;5.428;2023-09-18T12:36:45;100575.72;;;23.53;71.43
73748;BME280;62056;52.130;5.428;2023-09-18T12:39:14;100582.31;;;23.52;70.99
73748;BME280;62056;52.130;5.428;2023-09-18T12:41:44;100586.19;;;23.51;70.24
73748;BME280;62056;52.130;5.428;2023-09-18T12:44:11;100588.13;;;23.51;69.89
73748;BME280;62056;52.130;5.428;2023-09-18T12:46:38;100584.16;;;23.37;68.23
73748;BME280;62056;52.130;5.428;2023-09-18T12:51:44;100566.44;;;23.54;69.83
73748;BME280;62056;52.130;5.428;2023-09-18T12:54:14;100568.41;;;23.64;69.09
73748;BME280;62056;52.130;5.428;2023-09-18T12:56:43;100560.66;;;23.70;67.74
73748;BME280;62056;52.130;5.428;2023-09-18T12:59:10;100556.47;;;23.76;69.11
73748;BME280;62056;52.130;5.428;2023-09-18T13:01:46;100551.78;;;23.77;68.27
73748;BME280;62056;52.130;5.428;2023-09-18T13:04:14;100548.72;;;23.82;67.33
73748;BME280;62056;52.130;5.428;2023-09-18T13:06:42;100540.97;;;23.80;66.92
73748;BME280;62056;52.130;5.428;2023-09-18T13:09:19;100537.50;;;23.83;67.56